Terminal Aerodrome Forecast
Issued by NWS

Home | Current Version | Previous Version | Text Only | Print | Product List | Glossary On
Versions: 1 2 3 4 5 6 7 8 9 10 11 12 13 14 15 16 17
000
FTUS42 KTBW 291200 AAA
TAFRSW
TAF AMD
KRSW 291257Z 2913/3012 27011KT P6SM VCTS SCT025CB SCT100 BKN250
      TEMPO 2914/2917 VRB10G20KT 4SM SHRA BKN025
     FM291700 27013G20KT P6SM VCTS SCT030CB BKN100
     FM292200 27010KT P6SM VCTS SCT030CB BKN100
     FM300100 24005KT P6SM VCSH SCT025 BKN100=

USA.gov is the U.S. government's official web portal to all federal, state and local government web resources and services.